Главная страница
METAR-TAF:

METAR-TAF

Аэропорты :

Краснодар, Россия

Пашковский

широта: 45-02N, долгота: 039-09E, высота над уровнем моря: 33 м

Текущие метеонаблюдения

Эта сводка был подготовлена 35 минут назад, в 19:00 UTC
Ветер 8 Узел от восточно-северо-восточный
Температура 10°C
Влажность 66%
Давление 1024 hPa
Видимость 10 км и более
Нет облачности ниже 1500 м, и нет кучево-дождевой облачности

METAR: URKK 261900Z 06004MPS CAVOK 10/04 Q1024 R23C/CLRD60 NOSIG RMK QFE764

Время: 22:35 (19:35 UTC)

Прогноз

Эта сводка был подготовлена 2 часа и 39 минут назад, в 16:56 UTC
Прогноз действительный с 26-го 18 UTC до 27-го 18 UTC
Ветер 6 Узел от восточно-северо-восточный с порывами до 16 Узел
Видимость 10 км и более
Отдельные облака на высоте 4000 фута
временами
С 27-го 00 UTC до 27-го 06 UTC
Видимость: 3100 м
Отдельные облака на высоте 1100 фута
дымка

TAF: URKK 261656Z 2618/2718 06003G08MPS 9999 SCT040 TEMPO 2700/2706 3100 BR SCT011

Метеонаблюдения и прогнозы для более 4000 аэропортов (сводки METAR и TAF).

Имеющиеся станции представлены на карте желтыми и красными точками.

Чтобы увидеть название станции, наведите на нее мышь.

Затем щелкните, чтобы увидеть метеонаблюдения и метеопрогнозы.

Управление картой: чтобы увеличить масштаб, щелкните зеленые кнопки с черным крестиком; чтобы уменьшить масштаб, щелкните зеленую кнопку с тире; для просмотра соседних карт щелкайте зеленые стрелки.


METAR-TAF: